Time;durP1;ratioP1;P1;durP2;ratioP2;P2;SDS_P1;SDS_P2;PMS_P1;PMS_P2;Temp;Humidity;BMP_temperature;BMP_pressure;BME280_temperature;BME280_humidity;BME280_pressure;Samples;Min_cycle;Max_cycle;Signal;HPM_P1;HPM_P2
2022/05/12 00:00:32;;;;;;;5.68;2.50;;;10.80;99.90;;;;;;2215955;64;20197;-70
2022/05/12 00:03:08;;;;;;;3.28;1.75;;;10.80;99.90;;;;;;2215915;64;20208;-70
2022/05/12 00:05:46;;;;;;;4.05;1.80;;;10.80;99.90;;;;;;2215936;64;20160;-70
2022/05/12 00:08:23;;;;;;;5.18;1.88;;;10.70;99.90;;;;;;2215937;64;20172;-71
2022/05/12 00:10:59;;;;;;;7.18;1.75;;;10.70;99.90;;;;;;2215857;64;20193;-71
2022/05/12 00:13:37;;;;;;;3.88;1.40;;;10.60;99.90;;;;;;2215898;64;20160;-72
2022/05/12 00:16:17;;;;;;;3.03;1.00;;;10.50;99.90;;;;;;2215856;64;20168;-70
2022/05/12 00:18:55;;;;;;;2.53;1.55;;;10.50;99.90;;;;;;2215762;64;20171;-69
2022/05/12 00:21:35;;;;;;;3.78;1.17;;;10.40;99.90;;;;;;2215862;64;20234;-70
2022/05/12 00:24:16;;;;;;;2.58;1.38;;;10.30;99.90;;;;;;2215821;64;20273;-69
2022/05/12 00:26:56;;;;;;;2.53;0.95;;;10.30;99.90;;;;;;2215877;64;20176;-72
2022/05/12 00:29:38;;;;;;;5.05;1.10;;;10.30;99.90;;;;;;2215897;64;20168;-70
2022/05/12 00:32:18;;;;;;;2.67;0.80;;;10.20;99.90;;;;;;2215815;64;20248;-71
2022/05/12 00:34:58;;;;;;;1.98;0.82;;;10.10;99.90;;;;;;2215874;64;20168;-70
2022/05/12 00:37:35;;;;;;;4.22;1.02;;;10.10;99.90;;;;;;2215721;64;20164;-69
2022/05/12 00:40:15;;;;;;;1.50;0.80;;;10.00;99.90;;;;;;2215826;64;20176;-71
2022/05/12 00:42:58;;;;;;;2.40;0.70;;;10.00;99.90;;;;;;2215790;64;20164;-70
2022/05/12 00:45:42;;;;;;;3.13;1.17;;;10.00;99.90;;;;;;2215862;64;20248;-71
2022/05/12 00:48:23;;;;;;;4.85;1.30;;;9.90;99.90;;;;;;2215732;64;20164;-71
2022/05/12 00:51:04;;;;;;;5.63;1.40;;;9.90;99.90;;;;;;2215746;64;20322;-69
2022/05/12 00:53:41;;;;;;;5.05;1.38;;;9.80;99.90;;;;;;2215814;64;20689;-70
2022/05/12 00:56:22;;;;;;;1.70;0.93;;;9.90;99.90;;;;;;2215964;64;20886;-72
2022/05/12 00:59:07;;;;;;;2.90;1.20;;;9.80;99.90;;;;;;2215707;64;20699;-69
2022/05/12 01:01:44;;;;;;;2.17;1.03;;;9.80;99.90;;;;;;2215861;64;20298;-70
2022/05/12 01:04:22;;;;;;;4.20;1.13;;;9.80;99.90;;;;;;2215783;64;20344;-71
2022/05/12 01:06:59;;;;;;;5.85;1.45;;;9.70;99.90;;;;;;2215779;64;20212;-70
2022/05/12 01:09:37;;;;;;;4.43;1.30;;;9.80;99.90;;;;;;2215706;64;20205;-71
2022/05/12 01:12:14;;;;;;;1.77;1.30;;;9.70;99.90;;;;;;2215644;64;20187;-70
2022/05/12 01:14:52;;;;;;;3.05;1.25;;;9.70;99.90;;;;;;2215656;64;20240;-70
2022/05/12 01:17:32;;;;;;;2.33;1.20;;;9.70;99.90;;;;;;2215625;64;20185;-70
2022/05/12 01:20:12;;;;;;;2.30;0.85;;;9.70;99.90;;;;;;2215598;64;20180;-70
2022/05/12 01:23:03;;;;;;;2.47;1.00;;;9.70;99.90;;;;;;2215610;64;20316;-70
2022/05/12 01:25:45;;;;;;;5.18;1.30;;;9.60;99.90;;;;;;2215675;64;20276;-69
2022/05/12 01:28:21;;;;;;;3.35;1.13;;;9.60;99.90;;;;;;2215544;64;20702;-69
2022/05/12 01:30:59;;;;;;;3.83;1.33;;;9.60;99.90;;;;;;2215627;64;20164;-70
2022/05/12 01:33:38;;;;;;;6.93;1.13;;;9.60;99.90;;;;;;2215467;64;20226;-71
2022/05/12 01:36:16;;;;;;;2.30;1.25;;;9.60;99.90;;;;;;2215397;64;20188;-69
2022/05/12 01:38:53;;;;;;;2.97;1.10;;;9.50;99.90;;;;;;2215452;64;20187;-70
2022/05/12 01:41:34;;;;;;;1.77;1.13;;;9.50;99.90;;;;;;2215387;64;20164;-70
2022/05/12 01:44:14;;;;;;;2.60;1.02;;;9.40;99.90;;;;;;2215474;64;20297;-70
2022/05/12 01:46:52;;;;;;;2.78;1.15;;;9.40;99.90;;;;;;2215504;64;20185;-71
2022/05/12 01:49:34;;;;;;;4.20;1.05;;;9.40;99.90;;;;;;2215384;64;20811;-69
2022/05/12 01:52:13;;;;;;;2.30;1.25;;;9.40;99.90;;;;;;2215374;64;20189;-70
2022/05/12 01:54:50;;;;;;;2.65;1.10;;;9.40;99.90;;;;;;2215390;64;20199;-70
2022/05/12 01:57:29;;;;;;;4.38;1.40;;;9.30;99.90;;;;;;2215118;64;20244;-69
2022/05/12 02:00:15;;;;;;;3.58;1.83;;;9.20;99.90;;;;;;2215414;64;20447;-72
2022/05/12 02:02:52;;;;;;;3.05;1.77;;;9.20;99.90;;;;;;2215435;64;20309;-70
2022/05/12 02:05:32;;;;;;;4.43;1.95;;;9.30;99.90;;;;;;2215402;64;20238;-70
2022/05/12 02:08:12;;;;;;;3.70;1.52;;;9.30;99.90;;;;;;2214845;64;20579;-71
2022/05/12 02:10:53;;;;;;;5.18;2.03;;;9.20;99.90;;;;;;2215372;64;20178;-70
2022/05/12 02:13:30;;;;;;;3.22;1.83;;;9.30;99.90;;;;;;2215391;64;20168;-70
2022/05/12 02:16:10;;;;;;;2.92;2.20;;;9.20;99.90;;;;;;2215306;64;20280;-70
2022/05/12 02:18:50;;;;;;;5.00;2.30;;;9.20;99.90;;;;;;2215346;64;20163;-70
2022/05/12 02:21:28;;;;;;;6.78;2.25;;;9.20;99.90;;;;;;2215580;64;20187;-70
2022/05/12 02:24:07;;;;;;;4.30;2.53;;;9.10;99.90;;;;;;2215440;64;20178;-70
2022/05/12 02:26:45;;;;;;;4.22;2.15;;;9.10;99.90;;;;;;2215329;64;20164;-68
2022/05/12 02:29:24;;;;;;;4.53;2.20;;;9.00;99.90;;;;;;2215302;64;20172;-70
2022/05/12 02:32:02;;;;;;;5.18;2.85;;;9.00;99.90;;;;;;2215192;64;20172;-70
2022/05/12 02:34:38;;;;;;;5.22;2.72;;;9.00;99.90;;;;;;2215156;64;20241;-70
2022/05/12 02:37:14;;;;;;;6.38;2.95;;;8.90;99.90;;;;;;2215072;64;20164;-71
2022/05/12 02:39:52;;;;;;;8.95;2.88;;;8.90;99.90;;;;;;2215165;64;20178;-70
2022/05/12 02:42:28;;;;;;;7.93;2.95;;;8.90;99.90;;;;;;2215094;64;20219;-70
2022/05/12 02:45:07;;;;;;;5.30;2.55;;;8.90;99.90;;;;;;2215173;64;20172;-70
2022/05/12 02:47:45;;;;;;;6.93;2.97;;;8.90;99.90;;;;;;2215112;64;20163;-69
2022/05/12 02:50:24;;;;;;;8.40;3.05;;;8.90;99.90;;;;;;2215030;64;20172;-70
2022/05/12 02:53:03;;;;;;;7.57;3.40;;;8.90;99.90;;;;;;2215063;64;20575;-69
2022/05/12 02:55:44;;;;;;;5.55;3.50;;;8.90;99.90;;;;;;2215223;64;20156;-70
2022/05/12 02:58:24;;;;;;;13.57;3.85;;;9.00;99.90;;;;;;2214962;64;20160;-70
2022/05/12 03:01:05;;;;;;;8.82;3.63;;;8.90;99.90;;;;;;2215042;64;20236;-70
2022/05/12 03:03:45;;;;;;;8.68;3.58;;;8.90;99.90;;;;;;2215019;64;20640;-70
2022/05/12 03:06:22;;;;;;;8.38;4.20;;;8.90;99.90;;;;;;2214973;64;20193;-70
2022/05/12 03:09:01;;;;;;;6.38;3.53;;;8.90;99.90;;;;;;2215063;64;20223;-70
2022/05/12 03:11:40;;;;;;;10.13;3.63;;;9.00;99.90;;;;;;2214884;64;20233;-70
2022/05/12 03:14:22;;;;;;;9.45;4.15;;;9.00;99.90;;;;;;2214971;64;20684;-71
2022/05/12 03:17:01;;;;;;;7.63;4.07;;;9.00;99.90;;;;;;2214883;64;20429;-69
2022/05/12 03:19:37;;;;;;;9.10;4.78;;;8.90;99.90;;;;;;2215668;64;20181;-70
2022/05/12 03:22:14;;;;;;;9.80;4.38;;;8.90;99.90;;;;;;2216094;64;20171;-70
2022/05/12 03:24:52;;;;;;;7.57;4.55;;;9.00;99.90;;;;;;2216240;64;20651;-71
2022/05/12 03:27:31;;;;;;;10.35;4.78;;;9.00;99.90;;;;;;2216134;64;20727;-70
2022/05/12 03:30:34;;;;;;;12.98;4.50;;;8.90;99.90;;;;;;2216164;64;20193;-69
2022/05/12 03:33:14;;;;;;;9.88;4.57;;;8.90;99.90;;;;;;2215989;64;20740;-70
2022/05/12 03:35:52;;;;;;;9.85;4.75;;;8.90;99.90;;;;;;2216228;64;20281;-69
2022/05/12 03:38:34;;;;;;;12.50;4.60;;;8.90;99.90;;;;;;2216155;64;20236;-70
2022/05/12 03:41:14;;;;;;;12.60;5.20;;;8.80;99.90;;;;;;2216045;64;20570;-69
2022/05/12 03:46:46;;;;;;;11.50;5.88;;;8.80;99.90;;;;;;2216073;64;20311;-70
2022/05/12 03:49:22;;;;;;;13.98;5.65;;;8.80;99.90;;;;;;2216066;64;20164;-70
2022/05/12 03:52:00;;;;;;;20.08;6.22;;;8.80;99.90;;;;;;2215995;64;20155;-70
2022/05/12 03:54:40;;;;;;;14.35;6.10;;;8.80;99.90;;;;;;2216068;64;20530;-69
2022/05/12 03:57:17;;;;;;;10.82;6.43;;;8.80;99.90;;;;;;2215885;64;20175;-70
2022/05/12 03:59:55;;;;;;;14.50;5.47;;;8.70;99.90;;;;;;2215996;64;20199;-69
2022/05/12 04:02:36;;;;;;;11.38;5.60;;;8.90;99.90;;;;;;2216121;64;20580;-69
2022/05/12 04:05:17;;;;;;;13.75;6.45;;;8.70;99.90;;;;;;2216061;64;20560;-70
2022/05/12 04:07:54;;;;;;;10.57;5.90;;;8.70;99.90;;;;;;2216054;64;20320;-70
2022/05/12 04:10:32;;;;;;;12.88;6.15;;;8.70;99.90;;;;;;2216069;64;20168;-70
2022/05/12 04:13:12;;;;;;;14.40;5.47;;;8.70;99.90;;;;;;2216482;64;20666;-70
2022/05/12 04:15:52;;;;;;;11.43;5.85;;;8.60;99.90;;;;;;2215990;64;20309;-69
2022/05/12 04:18:29;;;;;;;10.57;6.40;;;8.60;99.90;;;;;;2216023;64;20223;-70
2022/05/12 04:21:07;;;;;;;11.75;5.97;;;8.70;99.90;;;;;;2215956;64;20272;-69
2022/05/12 04:23:47;;;;;;;12.68;6.03;;;8.70;99.90;;;;;;2215925;64;20272;-71
2022/05/12 04:26:24;;;;;;;11.88;6.20;;;8.60;99.90;;;;;;2215907;64;20172;-69
2022/05/12 04:29:04;;;;;;;13.05;5.93;;;8.70;99.90;;;;;;2215679;64;20304;-69
2022/05/12 04:31:44;;;;;;;12.80;6.57;;;8.70;99.90;;;;;;2215787;64;20293;-70
2022/05/12 04:37:25;;;;;;;13.98;6.53;;;8.70;99.90;;;;;;2215723;64;20172;-70
2022/05/12 04:40:13;;;;;;;13.60;6.82;;;8.80;99.90;;;;;;2215802;64;20189;-70
2022/05/12 04:42:51;;;;;;;13.15;6.07;;;8.90;99.90;;;;;;2215446;64;20238;-69
2022/05/12 04:45:31;;;;;;;11.60;7.30;;;9.00;99.90;;;;;;2215763;64;20232;-69
2022/05/12 04:48:09;;;;;;;12.65;6.75;;;9.00;99.90;;;;;;2215692;64;20163;-70
2022/05/12 04:50:45;;;;;;;11.57;7.18;;;9.10;99.90;;;;;;2215686;64;20206;-70
2022/05/12 04:53:22;;;;;;;15.02;6.60;;;9.10;99.90;;;;;;2215615;64;20164;-70
2022/05/12 04:55:59;;;;;;;13.82;7.50;;;9.10;99.90;;;;;;2215747;64;20249;-70
2022/05/12 04:58:39;;;;;;;11.43;6.43;;;9.20;99.90;;;;;;2215535;64;20328;-69
2022/05/12 05:01:17;;;;;;;14.35;7.45;;;9.20;99.90;;;;;;2215530;64;20209;-70
2022/05/12 05:03:59;;;;;;;12.40;6.80;;;9.30;99.90;;;;;;2215539;64;20189;-70
2022/05/12 05:06:36;;;;;;;11.07;6.72;;;9.30;99.90;;;;;;2215739;64;20179;-70
2022/05/12 05:09:13;;;;;;;12.40;6.13;;;9.40;99.90;;;;;;2215614;64;20583;-70
2022/05/12 05:11:50;;;;;;;12.15;7.28;;;9.50;99.90;;;;;;2215605;64;20361;-70
2022/05/12 05:14:27;;;;;;;13.18;7.05;;;9.50;99.90;;;;;;2215562;64;20202;-70
2022/05/12 05:17:05;;;;;;;12.38;6.78;;;9.50;99.90;;;;;;2215596;64;20176;-69
2022/05/12 05:19:41;;;;;;;12.18;7.30;;;9.60;99.90;;;;;;2215583;64;20164;-70
2022/05/12 05:22:18;;;;;;;12.18;7.13;;;9.60;99.90;;;;;;2215592;64;20231;-71
2022/05/12 05:24:56;;;;;;;14.68;6.93;;;9.70;99.90;;;;;;2215511;64;20168;-69
2022/05/12 05:27:37;;;;;;;17.45;7.35;;;9.70;99.90;;;;;;2215624;64;20182;-70
2022/05/12 05:30:17;;;;;;;9.52;7.40;;;9.80;99.90;;;;;;2215586;64;20160;-70
2022/05/12 05:32:55;;;;;;;13.00;7.18;;;9.90;99.90;;;;;;2215669;64;20172;-70
2022/05/12 05:35:36;;;;;;;14.50;7.38;;;9.90;99.90;;;;;;2215473;64;20171;-70
2022/05/12 05:38:15;;;;;;;19.40;7.60;;;10.00;99.90;;;;;;2215443;64;20156;-71
2022/05/12 05:40:52;;;;;;;13.48;6.80;;;10.10;99.90;;;;;;2215199;64;20575;-71
2022/05/12 05:43:31;;;;;;;14.05;7.45;;;10.20;99.90;;;;;;2215447;64;20779;-69
2022/05/12 05:46:11;;;;;;;16.05;6.60;;;10.20;99.90;;;;;;2215426;64;20172;-69
2022/05/12 05:48:51;;;;;;;11.80;6.38;;;10.30;99.90;;;;;;2215435;64;20156;-70
2022/05/12 05:54:31;;;;;;;9.95;5.63;;;10.50;99.90;;;;;;2215413;64;20194;-71
2022/05/12 05:57:08;;;;;;;14.73;5.93;;;10.70;99.90;;;;;;2215327;64;20340;-71
2022/05/12 05:59:45;;;;;;;13.25;5.65;;;10.70;99.90;;;;;;2215469;64;20168;-70
2022/05/12 06:02:23;;;;;;;12.55;5.22;;;10.80;99.90;;;;;;2215288;64;20277;-70
2022/05/12 06:05:02;;;;;;;9.32;5.28;;;10.90;99.90;;;;;;2215321;64;20669;-71
2022/05/12 06:07:40;;;;;;;12.35;5.03;;;10.90;99.90;;;;;;2215319;64;20207;-70
2022/05/12 06:10:18;;;;;;;9.40;5.28;;;11.00;99.90;;;;;;2215372;64;20168;-71
2022/05/12 06:17:34;;;;;;;9.85;4.90;;;11.20;99.90;;;;;;2176596;65;20187;-70
2022/05/12 06:20:14;;;;;;;7.85;3.97;;;11.30;99.90;;;;;;2176352;65;20681;-70
2022/05/12 06:22:51;;;;;;;7.20;3.20;;;11.40;99.90;;;;;;2176295;65;20188;-71
2022/05/12 06:25:29;;;;;;;7.95;3.80;;;11.50;99.90;;;;;;2176330;65;20600;-71
2022/05/12 06:28:10;;;;;;;5.65;4.32;;;11.60;99.90;;;;;;2176170;65;20244;-71
2022/05/12 06:30:51;;;;;;;8.15;2.72;;;11.70;99.90;;;;;;2176270;65;20163;-71
2022/05/12 06:33:33;;;;;;;7.57;3.25;;;11.70;99.90;;;;;;2176101;65;20171;-70
2022/05/12 06:36:20;;;;;;;7.57;2.90;;;11.80;99.90;;;;;;2176179;65;20267;-71
2022/05/12 06:39:05;;;;;;;11.88;4.03;;;11.90;99.90;;;;;;2176182;65;20271;-70
2022/05/12 06:41:45;;;;;;;7.57;3.97;;;11.90;99.90;;;;;;2176159;65;20175;-70
2022/05/12 06:44:22;;;;;;;8.82;3.15;;;12.00;99.90;;;;;;2176145;65;20205;-70
2022/05/12 06:47:02;;;;;;;5.82;3.10;;;12.10;99.90;;;;;;2176173;65;20644;-71
2022/05/12 06:49:38;;;;;;;7.75;3.20;;;12.10;99.90;;;;;;2176294;65;20264;-70
2022/05/12 06:52:15;;;;;;;7.90;2.53;;;12.20;99.90;;;;;;2185122;64;20204;-70
2022/05/12 06:54:58;;;;;;;5.82;2.38;;;12.40;99.90;;;;;;2216286;64;20205;-70
2022/05/12 06:57:34;;;;;;;7.97;2.63;;;12.40;99.90;;;;;;2216158;64;20201;-69
2022/05/12 07:00:11;;;;;;;10.98;3.15;;;12.50;99.90;;;;;;2216264;64;20198;-72
2022/05/12 07:02:47;;;;;;;7.72;2.75;;;12.50;99.90;;;;;;2216211;64;20643;-71
2022/05/12 07:05:27;;;;;;;9.85;2.65;;;12.60;99.90;;;;;;2216295;64;20246;-70
2022/05/12 07:08:02;;;;;;;8.23;2.42;;;12.70;99.90;;;;;;2216329;64;20694;-70
2022/05/12 07:10:40;;;;;;;6.88;3.00;;;12.80;99.90;;;;;;2216176;64;20237;-70
2022/05/12 07:13:21;;;;;;;7.05;2.50;;;12.80;99.90;;;;;;2215844;64;20357;-70
2022/05/12 07:16:01;;;;;;;7.43;2.67;;;12.90;99.90;;;;;;2216299;64;20185;-71
2022/05/12 11:25:13;;;;;;;4.28;1.70;;;23.10;54.00;;;;;;2423520;53;2293900;-69
2022/05/12 11:31:24;;;;;;;3.13;1.45;;;23.80;52.80;;;;;;2227375;64;20230;-72
2022/05/12 11:34:11;;;;;;;3.47;1.00;;;24.20;52.50;;;;;;2222314;64;20188;-72
2022/05/12 11:36:54;;;;;;;2.53;1.13;;;23.80;52.70;;;;;;2222342;64;21052;-71
2022/05/12 11:39:39;;;;;;;1.58;0.88;;;24.00;52.00;;;;;;2227632;64;20187;-70
2022/05/12 11:42:22;;;;;;;2.95;1.15;;;24.10;50.60;;;;;;2231347;64;20241;-69
2022/05/12 11:45:08;;;;;;;2.42;1.15;;;23.60;51.20;;;;;;2231331;64;20200;-69
2022/05/12 11:48:38;;;;;;;1.75;1.00;;;23.80;51.40;;;;;;2231393;64;20180;-69
2022/05/12 11:51:31;;;;;;;2.38;1.20;;;25.30;51.00;;;;;;2198840;65;20237;-70
2022/05/12 11:54:39;;;;;;;2.97;1.15;;;26.60;48.90;;;;;;2203851;65;20165;-70
2022/05/12 11:57:38;;;;;;;3.28;1.10;;;25.90;48.40;;;;;;2169082;66;20237;-71
2022/05/12 12:00:34;;;;;;;2.47;1.33;;;24.30;50.60;;;;;;2169062;66;20168;-72
2022/05/12 12:03:19;;;;;;;3.90;1.40;;;23.00;52.50;;;;;;2176791;65;20171;-70
2022/05/12 12:06:01;;;;;;;2.40;1.33;;;23.00;52.80;;;;;;2174310;65;20680;-70
2022/05/12 12:08:48;;;;;;;2.97;1.52;;;24.30;51.20;;;;;;2176619;65;20245;-70
2022/05/12 12:11:28;;;;;;;3.25;1.40;;;25.10;50.20;;;;;;2176452;65;20167;-72
2022/05/12 12:14:07;;;;;;;3.10;1.40;;;25.00;50.20;;;;;;2172110;65;20192;-70
2022/05/12 12:17:04;;;;;;;3.83;0.95;;;25.70;49.40;;;;;;2167873;66;20192;-71
2022/05/12 12:19:46;;;;;;;2.83;1.75;;;24.70;49.00;;;;;;2167764;66;20904;-69
2022/05/12 12:22:35;;;;;;;2.47;1.20;;;24.10;50.60;;;;;;2174303;65;20226;-70
2022/05/12 12:25:29;;;;;;;4.53;1.70;;;24.90;49.80;;;;;;2184920;65;20206;-72
2022/05/12 12:28:16;;;;;;;4.03;1.50;;;25.60;48.70;;;;;;2190146;65;20241;-71
2022/05/12 12:30:58;;;;;;;3.08;1.20;;;26.40;48.60;;;;;;2190152;65;20410;-71
2022/05/12 12:33:52;;;;;;;6.22;1.38;;;27.10;47.90;;;;;;2205590;64;20682;-69
2022/05/12 12:36:28;;;;;;;3.22;1.45;;;27.90;46.40;;;;;;2227762;64;20183;-68
2022/05/12 12:39:08;;;;;;;2.15;1.45;;;28.00;45.90;;;;;;2229308;64;20612;-70
2022/05/12 12:41:49;;;;;;;1.98;0.95;;;28.20;44.10;;;;;;2229437;64;20183;-71
2022/05/12 12:44:29;;;;;;;4.60;1.45;;;28.10;42.70;;;;;;2227545;64;20190;-69
2022/05/12 12:47:37;;;;;;;5.28;1.00;;;27.10;43.20;;;;;;2226365;64;20220;-71
2022/05/12 12:50:16;;;;;;;2.97;1.10;;;27.40;42.90;;;;;;2225607;64;20294;-71
2022/05/12 12:52:56;;;;;;;3.28;1.30;;;27.40;42.70;;;;;;2226873;64;20240;-70
2022/05/12 12:58:46;;;;;;;3.05;1.83;;;26.60;42.90;;;;;;2221558;64;20201;-71
2022/05/12 13:01:51;;;;;;;3.97;1.42;;;25.00;44.90;;;;;;2226897;64;20187;-68
2022/05/12 13:04:37;;;;;;;2.50;1.23;;;24.00;46.50;;;;;;2228293;64;20238;-70
2022/05/12 13:07:25;;;;;;;1.10;0.82;;;24.70;46.20;;;;;;2224785;64;20191;-70
2022/05/12 13:10:08;;;;;;;1.85;1.17;;;26.20;44.50;;;;;;2225544;64;20814;-70
2022/05/12 13:13:03;;;;;;;4.00;1.10;;;26.60;42.80;;;;;;2229146;64;20323;-70
2022/05/12 13:15:48;;;;;;;2.53;1.17;;;25.70;43.50;;;;;;2221446;64;20179;-69
2022/05/12 13:18:32;;;;;;;2.65;1.00;;;26.40;43.50;;;;;;2223347;64;20248;-71
2022/05/12 13:21:17;;;;;;;1.98;0.88;;;27.20;42.50;;;;;;2221552;64;20206;-70
2022/05/12 13:24:01;;;;;;;2.22;1.10;;;27.50;42.10;;;;;;2227235;64;20209;-70
2022/05/12 13:26:38;;;;;;;4.80;1.38;;;27.80;42.70;;;;;;2227150;64;20186;-70
2022/05/12 13:29:23;;;;;;;1.85;0.95;;;28.50;42.50;;;;;;2228545;64;20203;-69
2022/05/12 13:32:32;;;;;;;4.28;1.15;;;28.80;40.50;;;;;;2229145;64;20298;-69
2022/05/12 13:35:34;;;;;;;3.75;1.25;;;26.90;41.30;;;;;;2228042;64;20696;-69
2022/05/12 13:38:19;;;;;;;2.75;1.13;;;26.40;42.20;;;;;;2229142;64;20324;-71
2022/05/12 13:40:56;;;;;;;1.88;1.00;;;27.50;42.00;;;;;;2228685;64;20592;-71
2022/05/12 13:43:38;;;;;;;3.22;1.42;;;28.30;41.20;;;;;;2229144;64;20237;-69
2022/05/12 13:46:17;;;;;;;2.55;1.52;;;28.40;40.50;;;;;;2229116;64;20182;-68
2022/05/12 13:49:02;;;;;;;4.38;1.05;;;27.80;40.10;;;;;;2227998;64;20220;-70
2022/05/12 13:51:48;;;;;;;1.40;0.80;;;26.50;41.00;;;;;;2228157;64;20174;-70
2022/05/12 13:54:30;;;;;;;3.00;1.02;;;26.80;41.90;;;;;;2226913;64;20344;-72
2022/05/12 13:57:16;;;;;;;2.33;0.98;;;27.50;42.00;;;;;;2226698;64;20179;-72
2022/05/12 14:00:14;;;;;;;1.90;1.08;;;28.40;41.30;;;;;;2227514;64;20192;-72
2022/05/12 14:03:37;;;;;;;1.42;0.98;;;28.50;40.50;;;;;;2224933;64;20190;-71
2022/05/12 14:20:16;;;;;;;4.05;1.35;;;25.40;45.50;;;;;;2208896;64;20206;-71
2022/05/12 14:22:56;;;;;;;5.60;1.50;;;26.20;43.70;;;;;;2211857;64;20192;-70
2022/05/12 14:25:39;;;;;;;4.10;1.67;;;26.60;44.10;;;;;;2209666;64;20718;-70
2022/05/12 14:28:20;;;;;;;2.95;0.88;;;27.20;42.40;;;;;;2212202;64;20207;-70
2022/05/12 14:31:07;;;;;;;3.38;1.45;;;26.30;42.80;;;;;;2211646;64;20280;-70
2022/05/12 14:33:46;;;;;;;2.45;1.10;;;25.60;43.50;;;;;;2208917;64;21113;-71
2022/05/12 14:36:24;;;;;;;4.03;1.50;;;26.30;43.70;;;;;;2212292;64;20760;-70
2022/05/12 14:39:05;;;;;;;2.33;1.35;;;27.40;42.50;;;;;;2206809;64;20305;-70
2022/05/12 14:41:45;;;;;;;2.92;1.50;;;27.80;42.40;;;;;;2214766;64;20206;-71
2022/05/12 14:44:28;;;;;;;4.80;1.10;;;27.40;42.10;;;;;;2228714;64;20198;-70
2022/05/12 14:47:36;;;;;;;3.63;1.20;;;28.20;41.60;;;;;;2215927;64;20282;-70
2022/05/12 14:50:16;;;;;;;3.15;1.30;;;29.40;41.30;;;;;;2212187;64;20277;-70
2022/05/12 14:52:53;;;;;;;3.83;1.38;;;30.20;39.50;;;;;;2218404;64;20246;-75
2022/05/12 14:55:32;;;;;;;3.72;1.70;;;29.90;39.30;;;;;;2212105;64;20243;-70
2022/05/12 14:58:11;;;;;;;4.40;1.58;;;28.60;40.00;;;;;;2212169;64;20204;-70
2022/05/12 15:00:52;;;;;;;4.63;1.65;;;27.40;42.20;;;;;;2215648;64;20197;-72
2022/05/12 15:03:35;;;;;;;4.55;1.70;;;27.30;42.60;;;;;;2216004;64;20201;-70
2022/05/12 15:06:16;;;;;;;3.58;1.60;;;28.00;42.70;;;;;;2213020;64;20168;-71
2022/05/12 15:08:55;;;;;;;2.53;1.60;;;27.20;42.40;;;;;;2220258;64;20872;-70
2022/05/12 15:11:32;;;;;;;4.13;1.83;;;26.80;43.60;;;;;;2220282;64;20648;-71
2022/05/12 15:14:10;;;;;;;5.15;1.60;;;26.70;43.80;;;;;;2217720;64;20180;-69
2022/05/12 15:16:46;;;;;;;4.32;1.60;;;27.30;44.30;;;;;;2218976;64;20654;-71
2022/05/12 15:19:25;;;;;;;4.07;1.52;;;27.70;43.20;;;;;;2222774;64;20191;-71
2022/05/12 15:22:02;;;;;;;2.08;1.27;;;27.00;42.90;;;;;;2230269;64;20302;-70
2022/05/12 15:24:39;;;;;;;4.15;1.50;;;25.90;43.60;;;;;;2230303;64;20198;-70
2022/05/12 15:27:20;;;;;;;4.38;1.30;;;24.60;45.40;;;;;;2231441;64;20182;-73
2022/05/12 15:29:59;;;;;;;4.30;1.33;;;23.50;47.10;;;;;;2230955;64;20255;-73
2022/05/12 15:32:41;;;;;;;7.10;2.05;;;23.80;48.10;;;;;;2231319;64;20155;-72
2022/05/12 15:35:19;;;;;;;4.07;1.60;;;24.00;47.30;;;;;;2231280;64;20167;-71
2022/05/12 15:37:57;;;;;;;3.88;1.17;;;23.30;48.10;;;;;;2227839;64;20193;-70
2022/05/12 15:40:34;;;;;;;6.07;1.80;;;23.80;48.30;;;;;;2223594;64;20327;-71
2022/05/12 15:43:11;;;;;;;3.50;1.55;;;23.60;48.60;;;;;;2223851;64;20268;-71
2022/05/12 15:45:56;;;;;;;5.75;1.60;;;22.90;48.70;;;;;;2230404;64;20174;-69
2022/05/12 15:48:36;;;;;;;5.22;1.45;;;22.00;50.30;;;;;;2231513;64;20188;-71
2022/05/12 15:51:12;;;;;;;6.13;1.50;;;21.30;51.90;;;;;;2231463;64;20198;-72
2022/05/12 15:53:49;;;;;;;4.72;1.73;;;20.80;52.80;;;;;;2230829;64;20304;-71
2022/05/12 15:56:26;;;;;;;4.10;1.42;;;21.20;53.70;;;;;;2231274;64;20668;-70
2022/05/12 15:59:04;;;;;;;3.38;1.50;;;22.70;51.70;;;;;;2229318;64;20224;-72
2022/05/12 16:01:44;;;;;;;3.38;1.38;;;23.80;50.10;;;;;;2230975;64;20370;-72
2022/05/12 16:04:23;;;;;;;6.20;1.80;;;24.60;48.60;;;;;;2230462;64;20170;-72
2022/05/12 16:07:01;;;;;;;4.15;1.67;;;24.60;47.60;;;;;;2226020;64;20159;-72
2022/05/12 16:09:45;;;;;;;2.83;1.58;;;24.90;47.40;;;;;;2228589;64;20193;-72
2022/05/12 16:26:11;;;;;;;2.72;1.42;;;21.50;52.60;;;;;;2226238;63;20234;-71
2022/05/12 16:28:50;;;;;;;4.00;2.00;;;21.10;53.40;;;;;;2230176;64;20163;-70
2022/05/12 16:31:30;;;;;;;4.65;1.63;;;21.00;54.20;;;;;;2229722;64;20167;-70
2022/05/12 16:34:10;;;;;;;3.63;1.45;;;21.10;54.20;;;;;;2229909;64;20182;-71
2022/05/12 16:36:53;;;;;;;6.07;1.40;;;21.60;54.10;;;;;;2230912;64;20336;-71
2022/05/12 16:39:32;;;;;;;4.05;1.48;;;22.40;52.30;;;;;;2230742;64;20455;-71
2022/05/12 16:42:10;;;;;;;4.55;1.42;;;22.50;51.50;;;;;;2226593;64;20771;-72
2022/05/12 16:44:47;;;;;;;3.65;1.60;;;22.90;51.00;;;;;;2230773;64;20299;-72
2022/05/12 16:47:24;;;;;;;3.13;1.33;;;23.60;50.10;;;;;;2229597;64;20336;-70
2022/05/12 17:44:10;;;;;;;2.90;1.30;;;20.20;55.80;;;;;;2228226;64;22221;-70
2022/05/12 17:46:50;;;;;;;4.45;1.45;;;19.60;56.80;;;;;;2228406;64;20278;-69
2022/05/12 17:49:33;;;;;;;3.58;1.83;;;19.30;57.60;;;;;;2230387;64;20192;-69
2022/05/12 17:52:19;;;;;;;4.18;1.70;;;19.10;58.60;;;;;;2230491;64;20225;-70
2022/05/12 17:54:56;;;;;;;5.20;1.45;;;18.90;59.20;;;;;;2230007;64;20184;-71
2022/05/12 17:57:35;;;;;;;4.30;1.58;;;18.80;60.00;;;;;;2229351;64;20688;-70
2022/05/12 18:00:24;;;;;;;2.78;1.33;;;18.80;59.80;;;;;;2227138;64;20320;-70
2022/05/12 18:03:03;;;;;;;2.78;1.60;;;19.00;59.80;;;;;;2229053;64;20200;-70
2022/05/12 18:05:42;;;;;;;5.07;1.70;;;19.10;59.80;;;;;;2230047;64;20163;-70
2022/05/12 18:08:23;;;;;;;5.90;2.05;;;18.80;60.00;;;;;;2227242;64;20228;-73
2022/05/12 18:11:01;;;;;;;4.93;2.00;;;18.60;60.60;;;;;;2229509;64;20196;-73
2022/05/12 18:13:41;;;;;;;4.32;1.70;;;18.40;61.00;;;;;;2229730;64;20192;-73
2022/05/12 18:16:21;;;;;;;4.13;2.30;;;18.20;61.30;;;;;;2228967;64;20184;-73
2022/05/12 18:18:59;;;;;;;4.47;1.80;;;18.10;61.80;;;;;;2229643;64;20184;-72
2022/05/12 18:21:41;;;;;;;6.15;1.92;;;18.00;62.30;;;;;;2230515;64;20159;-72
2022/05/12 18:24:18;;;;;;;5.10;1.55;;;18.00;62.70;;;;;;2229829;64;20170;-72
2022/05/12 18:26:56;;;;;;;5.70;2.20;;;18.20;62.90;;;;;;2229987;64;20565;-72
2022/05/12 18:29:36;;;;;;;4.05;1.92;;;18.20;62.60;;;;;;2230387;64;20322;-73
2022/05/12 18:32:13;;;;;;;5.95;1.90;;;18.20;62.60;;;;;;2230437;64;20210;-73
2022/05/12 18:34:49;;;;;;;4.20;1.65;;;18.10;62.70;;;;;;2229069;64;20252;-73
2022/05/12 18:37:27;;;;;;;4.00;1.58;;;18.10;62.90;;;;;;2225354;64;20638;-74
2022/05/12 18:40:07;;;;;;;8.32;1.95;;;18.00;63.10;;;;;;2226285;64;20163;-73
2022/05/12 18:42:44;;;;;;;5.30;1.80;;;17.80;63.60;;;;;;2229630;64;20196;-73
2022/05/12 18:45:24;;;;;;;5.60;1.88;;;17.50;64.00;;;;;;2230358;64;20195;-73
2022/05/12 18:48:02;;;;;;;3.65;1.67;;;17.30;64.90;;;;;;2230377;64;20179;-73
2022/05/12 18:50:43;;;;;;;3.97;1.50;;;17.10;65.50;;;;;;2229917;64;20260;-72
2022/05/12 18:53:24;;;;;;;3.50;1.50;;;16.70;65.70;;;;;;2228207;64;20757;-72
2022/05/12 18:56:06;;;;;;;3.10;1.25;;;16.70;66.20;;;;;;2224158;64;20259;-73
2022/05/12 18:58:44;;;;;;;3.65;1.30;;;16.50;66.90;;;;;;2229539;64;20199;-73
2022/05/12 19:01:25;;;;;;;3.88;1.50;;;16.40;67.50;;;;;;2230582;64;20323;-72
2022/05/12 19:04:06;;;;;;;4.93;2.25;;;16.30;68.20;;;;;;2229334;64;20171;-74
2022/05/12 19:06:48;;;;;;;3.65;2.00;;;16.10;68.80;;;;;;2231273;64;20323;-73
2022/05/12 19:09:27;;;;;;;6.55;1.60;;;16.00;69.20;;;;;;2230623;64;20301;-72
2022/05/12 19:12:06;;;;;;;4.35;1.30;;;15.90;69.40;;;;;;2228265;64;20194;-73
2022/05/12 19:14:43;;;;;;;6.95;1.98;;;15.70;70.00;;;;;;2225937;64;20163;-73
2022/05/12 19:17:21;;;;;;;3.92;1.25;;;15.60;70.50;;;;;;2229110;64;20166;-72
2022/05/12 19:20:02;;;;;;;4.40;1.63;;;15.50;71.10;;;;;;2227908;64;20649;-73
2022/05/12 19:22:40;;;;;;;2.65;1.40;;;15.40;71.50;;;;;;2226027;64;21199;-71
2022/05/12 19:25:21;;;;;;;6.35;2.13;;;15.20;72.00;;;;;;2223389;64;20166;-70
2022/05/12 19:27:58;;;;;;;3.42;1.65;;;15.10;73.00;;;;;;2225121;64;20162;-70
2022/05/12 19:30:39;;;;;;;4.28;1.95;;;15.00;73.60;;;;;;2227227;64;20256;-70
2022/05/12 19:33:20;;;;;;;3.88;1.83;;;14.90;74.20;;;;;;2227327;64;20244;-70
2022/05/12 19:36:01;;;;;;;7.53;2.47;;;14.80;75.20;;;;;;2227885;64;20179;-70
2022/05/12 19:38:50;;;;;;;4.65;1.90;;;14.80;76.40;;;;;;2225988;64;20345;-70
2022/05/12 19:41:27;;;;;;;3.70;2.08;;;14.70;77.50;;;;;;2226410;64;20744;-70
2022/05/12 19:44:05;;;;;;;5.78;3.03;;;14.60;78.30;;;;;;2228493;64;20934;-70
2022/05/12 19:46:43;;;;;;;9.50;1.95;;;14.40;79.20;;;;;;2228082;64;20245;-72